Landrum, South Carolina
Current Conditions -  °F | °C
As of 6:53 PM on Sunday 25 Jan 2015 (Local Time) from KGSP Reporting Station
Clear Clear  
Wind Chill: 45°   Ceiling: Unl
Heat Index: 47°   Visibility: 10mi
Dew Point: 30°   Wind: 5mph
Humidity: 52%   Direction: 180°S
Pressure: 29.76"   Gusts: NA
Location:  35.18°N, 82.19°W
Report Text: KGSP 252353Z 18004KT 10SM CLR 08/M01 A2976 RMK AO2 SLP080 T00831011 10144 20083 53000
Loading
Personal Weather Stations






























Interactive Weather Map New forecast layout! Learn more

10-Day Weather Forecast

Advertisements
Track Severe Weather on mobile